sensor_id;sensor_type;location;lat;lon;timestamp;temperature;humidity
44705;DHT22;30431;48.520;9.046;2022-11-14T19:35:24;7.00;99.90
44705;DHT22;30431;48.520;9.046;2022-11-14T19:38:10;6.90;99.90
44705;DHT22;30431;48.520;9.046;2022-11-14T19:41:03;6.80;99.90
44705;DHT22;30431;48.520;9.046;2022-11-14T19:43:50;6.80;99.90
44705;DHT22;30431;48.520;9.046;2022-11-14T19:46:40;6.70;99.90
44705;DHT22;30431;48.520;9.046;2022-11-14T19:49:31;6.70;99.90
44705;DHT22;30431;48.520;9.046;2022-11-14T19:52:19;6.60;99.90
44705;DHT22;30431;48.520;9.046;2022-11-14T19:55:09;6.60;99.90
44705;DHT22;30431;48.520;9.046;2022-11-14T19:57:55;6.50;99.90
44705;DHT22;30431;48.520;9.046;2022-11-14T20:00:42;6.50;99.90
44705;DHT22;30431;48.520;9.046;2022-11-14T20:03:27;6.40;99.90
44705;DHT22;30431;48.520;9.046;2022-11-14T20:06:20;6.40;99.90
44705;DHT22;30431;48.520;9.046;2022-11-14T20:09:09;6.40;99.90
44705;DHT22;30431;48.520;9.046;2022-11-14T20:11:55;6.30;99.90
44705;DHT22;30431;48.520;9.046;2022-11-14T20:14:41;6.30;99.90
44705;DHT22;30431;48.520;9.046;2022-11-14T20:17:27;6.30;99.90
44705;DHT22;30431;48.520;9.046;2022-11-14T20:20:12;6.20;99.90
44705;DHT22;30431;48.520;9.046;2022-11-14T20:22:58;6.20;99.90
44705;DHT22;30431;48.520;9.046;2022-11-14T20:25:50;6.10;99.90
44705;DHT22;30431;48.520;9.046;2022-11-14T20:28:36;6.10;99.90
44705;DHT22;30431;48.520;9.046;2022-11-14T20:31:28;6.00;99.90
44705;DHT22;30431;48.520;9.046;2022-11-14T20:34:17;5.90;99.90
44705;DHT22;30431;48.520;9.046;2022-11-14T20:37:03;5.90;99.90
44705;DHT22;30431;48.520;9.046;2022-11-14T20:39:55;5.90;99.90
44705;DHT22;30431;48.520;9.046;2022-11-14T20:42:48;5.90;99.90
44705;DHT22;30431;48.520;9.046;2022-11-14T20:45:34;5.80;99.90
44705;DHT22;30431;48.520;9.046;2022-11-14T20:48:19;5.80;99.90
44705;DHT22;30431;48.520;9.046;2022-11-14T20:51:12;5.80;99.90
44705;DHT22;30431;48.520;9.046;2022-11-14T20:54:01;5.80;99.90
44705;DHT22;30431;48.520;9.046;2022-11-14T20:56:47;5.70;99.90
44705;DHT22;30431;48.520;9.046;2022-11-14T20:59:33;5.70;99.90
44705;DHT22;30431;48.520;9.046;2022-11-14T21:02:18;5.60;99.90
44705;DHT22;30431;48.520;9.046;2022-11-14T21:05:04;5.60;99.90
44705;DHT22;30431;48.520;9.046;2022-11-14T21:07:50;5.60;99.90
44705;DHT22;30431;48.520;9.046;2022-11-14T21:10:37;5.50;99.90
44705;DHT22;30431;48.520;9.046;2022-11-14T21:13:38;5.50;99.90
44705;DHT22;30431;48.520;9.046;2022-11-14T21:16:43;5.50;99.90
44705;DHT22;30431;48.520;9.046;2022-11-14T21:19:30;5.40;99.90
44705;DHT22;30431;48.520;9.046;2022-11-14T21:22:20;5.40;99.90
44705;DHT22;30431;48.520;9.046;2022-11-14T21:25:06;5.30;99.90
44705;DHT22;30431;48.520;9.046;2022-11-14T21:27:57;5.30;99.90
44705;DHT22;30431;48.520;9.046;2022-11-14T21:30:43;5.30;99.90
44705;DHT22;30431;48.520;9.046;2022-11-14T21:33:30;5.30;99.90
44705;DHT22;30431;48.520;9.046;2022-11-14T21:36:17;5.20;99.90
44705;DHT22;30431;48.520;9.046;2022-11-14T21:39:23;5.20;99.90
44705;DHT22;30431;48.520;9.046;2022-11-14T21:42:10;5.20;99.90
44705;DHT22;30431;48.520;9.046;2022-11-14T21:45:03;5.20;99.90
44705;DHT22;30431;48.520;9.046;2022-11-14T21:47:48;5.10;99.90
44705;DHT22;30431;48.520;9.046;2022-11-14T21:50:33;5.20;99.90
44705;DHT22;30431;48.520;9.046;2022-11-14T21:53:21;5.20;99.90
44705;DHT22;30431;48.520;9.046;2022-11-14T21:56:16;5.20;99.90
44705;DHT22;30431;48.520;9.046;2022-11-14T21:59:15;5.20;99.90
44705;DHT22;30431;48.520;9.046;2022-11-14T22:02:03;5.20;99.90
44705;DHT22;30431;48.520;9.046;2022-11-14T22:05:07;5.10;99.90
44705;DHT22;30431;48.520;9.046;2022-11-14T22:07:52;5.10;99.90
44705;DHT22;30431;48.520;9.046;2022-11-14T22:10:38;5.00;99.90
44705;DHT22;30431;48.520;9.046;2022-11-14T22:13:23;4.90;99.90
44705;DHT22;30431;48.520;9.046;2022-11-14T22:16:11;4.90;99.90
44705;DHT22;30431;48.520;9.046;2022-11-14T22:19:01;4.90;99.90
44705;DHT22;30431;48.520;9.046;2022-11-14T22:21:52;4.90;99.90
44705;DHT22;30431;48.520;9.046;2022-11-14T22:24:38;4.80;99.90
44705;DHT22;30431;48.520;9.046;2022-11-14T22:27:27;4.70;99.90
44705;DHT22;30431;48.520;9.046;2022-11-14T22:30:15;4.70;99.90
44705;DHT22;30431;48.520;9.046;2022-11-14T22:33:01;4.70;99.90
44705;DHT22;30431;48.520;9.046;2022-11-14T22:35:46;4.60;99.90
44705;DHT22;30431;48.520;9.046;2022-11-14T22:38:33;4.60;99.90
44705;DHT22;30431;48.520;9.046;2022-11-14T22:41:20;4.60;99.90
44705;DHT22;30431;48.520;9.046;2022-11-14T22:44:11;4.60;99.90
44705;DHT22;30431;48.520;9.046;2022-11-14T22:47:01;4.50;99.90
44705;DHT22;30431;48.520;9.046;2022-11-14T22:49:49;4.50;99.90
44705;DHT22;30431;48.520;9.046;2022-11-14T22:52:35;4.50;99.90
44705;DHT22;30431;48.520;9.046;2022-11-14T22:55:21;4.50;99.90
44705;DHT22;30431;48.520;9.046;2022-11-14T22:58:06;4.40;99.90
44705;DHT22;30431;48.520;9.046;2022-11-14T23:00:52;4.40;99.90
44705;DHT22;30431;48.520;9.046;2022-11-14T23:03:38;4.40;99.90
44705;DHT22;30431;48.520;9.046;2022-11-14T23:06:25;4.40;99.90
44705;DHT22;30431;48.520;9.046;2022-11-14T23:09:10;4.30;99.90
44705;DHT22;30431;48.520;9.046;2022-11-14T23:11:56;4.30;99.90
44705;DHT22;30431;48.520;9.046;2022-11-14T23:14:42;4.30;99.90
44705;DHT22;30431;48.520;9.046;2022-11-14T23:17:27;4.30;99.90
44705;DHT22;30431;48.520;9.046;2022-11-14T23:20:15;4.30;99.90
44705;DHT22;30431;48.520;9.046;2022-11-14T23:23:01;4.40;99.90
44705;DHT22;30431;48.520;9.046;2022-11-14T23:25:47;4.50;99.90
44705;DHT22;30431;48.520;9.046;2022-11-14T23:28:33;4.70;99.90
44705;DHT22;30431;48.520;9.046;2022-11-14T23:31:21;4.80;99.90
44705;DHT22;30431;48.520;9.046;2022-11-14T23:34:09;4.90;99.90
44705;DHT22;30431;48.520;9.046;2022-11-14T23:36:54;5.00;99.90
44705;DHT22;30431;48.520;9.046;2022-11-14T23:39:40;5.00;99.90
44705;DHT22;30431;48.520;9.046;2022-11-14T23:42:26;5.10;99.90
44705;DHT22;30431;48.520;9.046;2022-11-14T23:45:11;5.10;99.90
44705;DHT22;30431;48.520;9.046;2022-11-14T23:47:57;4.90;99.90
44705;DHT22;30431;48.520;9.046;2022-11-14T23:50:43;4.90;99.90
44705;DHT22;30431;48.520;9.046;2022-11-14T23:53:29;4.80;99.90
44705;DHT22;30431;48.520;9.046;2022-11-14T23:56:15;4.70;99.90
44705;DHT22;30431;48.520;9.046;2022-11-14T23:59:00;4.60;99.90
